Time;durP1;ratioP1;P1;durP2;ratioP2;P2;SDS_P1;SDS_P2;PMS_P1;PMS_P2;Temp;Humidity;BMP_temperature;BMP_pressure;BME280_temperature;BME280_humidity;BME280_pressure;Samples;Min_cycle;Max_cycle;Signal;HPM_P1;HPM_P2
2021/05/24 00:00:22;;;;;;;1.85;0.40;;;16.30;62.30;;;;;;5052526;28;20025;-72
2021/05/24 00:02:49;;;;;;;3.63;0.90;;;16.30;61.70;;;;;;5052825;28;20029;-71
2021/05/24 00:05:37;;;;;;;2.88;0.35;;;16.30;61.60;;;;;;5055893;28;20027;-71
2021/05/24 00:08:04;;;;;;;2.65;0.40;;;16.30;62.00;;;;;;5054537;28;20033;-71
2021/05/24 00:10:34;;;;;;;4.38;0.55;;;16.30;62.00;;;;;;5055733;28;20040;-71
2021/05/24 00:13:02;;;;;;;1.50;0.50;;;16.20;62.20;;;;;;5055827;28;20096;-72
2021/05/24 00:15:32;;;;;;;1.45;0.40;;;16.20;62.30;;;;;;5055592;28;20060;-71
2021/05/24 00:17:58;;;;;;;2.13;0.50;;;16.30;62.70;;;;;;5055729;28;20086;-71
2021/05/24 00:20:30;;;;;;;2.35;0.43;;;16.20;62.40;;;;;;5055527;28;20121;-72
2021/05/24 00:22:56;;;;;;;3.37;0.40;;;16.20;62.50;;;;;;5055582;28;20033;-71
2021/05/24 00:25:22;;;;;;;0.93;0.40;;;16.20;62.10;;;;;;5055557;28;20166;-71
2021/05/24 00:27:49;;;;;;;1.95;0.50;;;16.20;62.10;;;;;;5055659;28;20033;-72
2021/05/24 00:30:15;;;;;;;2.30;0.60;;;16.20;62.00;;;;;;5055536;28;20358;-72
2021/05/24 00:32:41;;;;;;;1.08;0.32;;;16.20;62.00;;;;;;5055490;28;20040;-72
2021/05/24 00:35:09;;;;;;;4.40;1.08;;;16.20;62.00;;;;;;5055109;28;20432;-72
2021/05/24 00:37:35;;;;;;;1.52;0.40;;;16.10;61.70;;;;;;5055416;28;20040;-72
2021/05/24 00:40:01;;;;;;;1.05;0.40;;;16.10;61.60;;;;;;5055343;28;20032;-72
2021/05/24 00:42:27;;;;;;;1.75;0.60;;;16.20;61.60;;;;;;5055391;28;20021;-72
2021/05/24 00:44:52;;;;;;;2.20;0.40;;;16.20;61.40;;;;;;5055305;28;20481;-72
2021/05/24 00:47:18;;;;;;;1.90;0.50;;;16.10;61.20;;;;;;5055185;28;20527;-71
2021/05/24 00:49:44;;;;;;;6.00;0.60;;;16.10;61.20;;;;;;5055137;28;20526;-72
2021/05/24 00:52:14;;;;;;;1.13;0.40;;;16.10;61.50;;;;;;5055246;28;20065;-72
2021/05/24 00:54:40;;;;;;;2.60;0.80;;;16.10;61.40;;;;;;5054689;28;20134;-71
2021/05/24 00:57:06;;;;;;;1.98;0.40;;;16.10;61.50;;;;;;5054847;28;20033;-71
2021/05/24 00:59:33;;;;;;;1.30;0.40;;;16.10;61.60;;;;;;5051497;28;20429;-72
2021/05/24 01:01:59;;;;;;;0.77;0.40;;;16.10;61.50;;;;;;5051982;28;20535;-72
2021/05/24 01:04:24;;;;;;;1.48;0.30;;;16.10;61.50;;;;;;5052688;28;20029;-71
2021/05/24 01:06:50;;;;;;;0.70;0.30;;;16.10;61.50;;;;;;5054205;28;20029;-72
2021/05/24 01:09:18;;;;;;;1.20;0.50;;;16.10;61.80;;;;;;5054572;28;20032;-71
2021/05/24 01:11:46;;;;;;;1.73;0.40;;;16.10;61.70;;;;;;5054459;28;20028;-71
2021/05/24 01:14:12;;;;;;;2.38;0.70;;;16.10;61.70;;;;;;5053947;28;20426;-72
2021/05/24 01:16:39;;;;;;;2.47;0.57;;;16.10;61.70;;;;;;5053999;28;20123;-71
2021/05/24 01:19:05;;;;;;;2.72;0.57;;;16.10;61.70;;;;;;5054343;28;20056;-72
2021/05/24 01:21:30;;;;;;;4.90;0.40;;;16.10;61.60;;;;;;5054363;28;20060;-72
2021/05/24 01:23:56;;;;;;;0.77;0.40;;;16.10;61.50;;;;;;5054462;28;20025;-71
2021/05/24 01:26:22;;;;;;;3.92;0.60;;;16.10;61.50;;;;;;5054573;28;20056;-71
2021/05/24 01:28:48;;;;;;;2.08;0.50;;;16.10;61.70;;;;;;5054174;28;20481;-71
2021/05/24 01:31:15;;;;;;;2.75;0.52;;;16.10;61.80;;;;;;5054172;28;20032;-71
2021/05/24 01:33:41;;;;;;;2.90;1.08;;;16.10;61.70;;;;;;5054071;28;20094;-71
2021/05/24 01:36:09;;;;;;;2.67;0.52;;;16.10;62.00;;;;;;5053940;28;20037;-71
2021/05/24 01:38:38;;;;;;;2.45;0.52;;;16.10;62.10;;;;;;5054562;28;20032;-71
2021/05/24 01:41:08;;;;;;;1.20;0.30;;;16.10;62.20;;;;;;5053871;28;20047;-71
2021/05/24 01:43:35;;;;;;;3.90;0.75;;;16.10;62.50;;;;;;5053992;28;20025;-72
2021/05/24 01:46:01;;;;;;;3.75;0.60;;;16.00;62.50;;;;;;5054036;28;20036;-71
2021/05/24 01:48:27;;;;;;;1.40;0.50;;;16.00;62.50;;;;;;5054039;28;20485;-71
2021/05/24 01:50:53;;;;;;;1.88;0.50;;;16.00;62.80;;;;;;5053591;28;20025;-71
2021/05/24 01:53:19;;;;;;;1.60;0.57;;;16.00;63.00;;;;;;5053868;28;20032;-71
2021/05/24 01:55:46;;;;;;;2.88;0.82;;;16.00;62.70;;;;;;5053459;28;20124;-72
2021/05/24 01:58:12;;;;;;;1.58;0.60;;;16.00;62.90;;;;;;5053479;28;20408;-71
2021/05/24 02:00:38;;;;;;;2.70;0.77;;;16.00;63.30;;;;;;5053648;28;20092;-71
2021/05/24 02:03:04;;;;;;;1.38;0.60;;;16.00;63.30;;;;;;5053529;28;20029;-71
2021/05/24 02:05:30;;;;;;;2.42;0.60;;;16.00;63.40;;;;;;5053602;28;20032;-71
2021/05/24 02:07:59;;;;;;;3.15;0.75;;;16.00;63.80;;;;;;5053380;28;20024;-72
2021/05/24 02:10:27;;;;;;;7.72;0.80;;;15.90;64.00;;;;;;5053607;28;20032;-71
2021/05/24 02:12:53;;;;;;;2.72;0.73;;;16.00;63.90;;;;;;5053601;28;20485;-71
2021/05/24 02:15:22;;;;;;;2.53;0.50;;;15.90;63.90;;;;;;5053126;28;20033;-71
2021/05/24 02:17:49;;;;;;;2.40;0.68;;;15.90;64.00;;;;;;5053412;28;20060;-71
2021/05/24 02:20:34;;;;;;;3.83;0.80;;;15.90;63.90;;;;;;5053067;28;20111;-71
2021/05/24 02:23:00;;;;;;;3.40;0.52;;;15.90;63.50;;;;;;5053382;28;20029;-71
2021/05/24 02:25:27;;;;;;;4.97;0.90;;;15.90;64.30;;;;;;5053182;28;20087;-71
2021/05/24 02:27:53;;;;;;;4.03;0.60;;;15.90;63.60;;;;;;5053209;28;20062;-71
2021/05/24 02:30:20;;;;;;;1.80;0.60;;;15.90;63.50;;;;;;5053258;28;20029;-71
2021/05/24 02:32:47;;;;;;;3.05;0.75;;;15.90;63.90;;;;;;5052965;28;20025;-71
2021/05/24 02:35:15;;;;;;;2.28;0.60;;;16.00;64.30;;;;;;5053840;28;20492;-71
2021/05/24 02:37:42;;;;;;;7.18;0.68;;;16.00;64.30;;;;;;5053162;28;20067;-71
2021/05/24 02:40:09;;;;;;;1.45;0.68;;;15.90;64.30;;;;;;5053134;28;20035;-71
2021/05/24 02:42:35;;;;;;;6.50;0.63;;;16.00;64.40;;;;;;5053141;28;20056;-71
2021/05/24 02:45:06;;;;;;;4.35;0.70;;;15.90;64.30;;;;;;5052929;28;20499;-71
2021/05/24 02:47:32;;;;;;;2.58;0.60;;;15.90;64.30;;;;;;5053063;28;20017;-72
2021/05/24 02:49:58;;;;;;;3.65;0.70;;;15.90;64.30;;;;;;5053088;28;20476;-71
2021/05/24 02:52:23;;;;;;;4.75;1.00;;;15.90;64.70;;;;;;5052988;28;20074;-71
2021/05/24 02:54:49;;;;;;;1.35;0.65;;;15.90;64.80;;;;;;5052772;28;20083;-71
2021/05/24 02:57:15;;;;;;;3.45;0.90;;;15.90;64.60;;;;;;5052792;28;20032;-71
2021/05/24 02:59:40;;;;;;;3.83;0.77;;;15.90;64.60;;;;;;5052806;28;20508;-71
2021/05/24 03:02:11;;;;;;;2.25;0.70;;;15.90;64.70;;;;;;5053036;28;20025;-71
2021/05/24 03:04:37;;;;;;;3.13;0.98;;;15.90;64.50;;;;;;5052679;28;20028;-71
2021/05/24 03:07:04;;;;;;;1.73;0.70;;;15.90;64.40;;;;;;5052483;28;20017;-72
2021/05/24 03:09:30;;;;;;;2.22;0.70;;;15.90;64.30;;;;;;5052432;28;20025;-71
2021/05/24 03:11:56;;;;;;;2.63;0.80;;;15.90;64.30;;;;;;5052815;28;20021;-71
2021/05/24 03:14:22;;;;;;;3.40;0.95;;;15.90;64.30;;;;;;5052673;28;20028;-71
2021/05/24 03:16:48;;;;;;;0.98;0.68;;;15.90;64.40;;;;;;5052741;28;20037;-71
2021/05/24 03:19:13;;;;;;;2.22;0.70;;;16.00;64.50;;;;;;5052869;28;20021;-71
2021/05/24 03:21:39;;;;;;;2.97;0.80;;;16.00;64.90;;;;;;5052895;28;20029;-71
2021/05/24 03:24:06;;;;;;;7.18;1.00;;;16.00;65.10;;;;;;5052914;28;20103;-71
2021/05/24 03:26:31;;;;;;;2.08;0.60;;;16.00;65.00;;;;;;5052509;28;20071;-71
2021/05/24 03:28:57;;;;;;;3.67;0.90;;;16.00;65.00;;;;;;5052329;28;20064;-71
2021/05/24 03:31:23;;;;;;;3.90;1.08;;;16.00;65.30;;;;;;5052667;28;20079;-71
2021/05/24 03:33:48;;;;;;;5.47;1.30;;;16.00;65.70;;;;;;5052488;28;20392;-72
2021/05/24 03:36:14;;;;;;;2.08;0.80;;;16.00;65.80;;;;;;5052416;28;20080;-71
2021/05/24 03:38:40;;;;;;;6.28;0.85;;;15.90;65.90;;;;;;5053834;28;20021;-71
2021/05/24 03:41:06;;;;;;;1.70;0.70;;;16.00;65.50;;;;;;5056672;28;20021;-71
2021/05/24 03:43:32;;;;;;;4.15;0.80;;;16.00;65.30;;;;;;5056502;28;20024;-71
2021/05/24 03:45:58;;;;;;;4.53;0.95;;;16.00;64.80;;;;;;5056591;28;20480;-71
2021/05/24 03:48:24;;;;;;;4.85;1.77;;;16.00;64.70;;;;;;5056448;28;20027;-72
2021/05/24 03:50:49;;;;;;;2.47;0.70;;;16.00;64.60;;;;;;5056104;28;20100;-71
2021/05/24 03:53:15;;;;;;;2.75;1.00;;;16.00;64.50;;;;;;5056332;28;20072;-72
2021/05/24 03:55:41;;;;;;;5.32;0.70;;;16.00;64.60;;;;;;5056159;28;20049;-71
2021/05/24 03:58:06;;;;;;;2.63;0.85;;;16.00;64.70;;;;;;5055244;28;20017;-71
2021/05/24 04:00:32;;;;;;;4.28;0.70;;;16.00;64.70;;;;;;5055883;28;20103;-71
2021/05/24 04:03:01;;;;;;;2.47;1.02;;;16.00;64.80;;;;;;5056030;28;20105;-71
2021/05/24 04:05:31;;;;;;;3.33;0.80;;;16.00;64.90;;;;;;5055962;28;20024;-71
2021/05/24 04:07:58;;;;;;;2.60;0.77;;;16.00;64.80;;;;;;5055906;28;20036;-71
2021/05/24 04:10:29;;;;;;;5.95;0.88;;;16.00;65.40;;;;;;5055820;28;20042;-71
2021/05/24 04:12:55;;;;;;;4.75;0.90;;;16.00;64.80;;;;;;5055921;28;20160;-71
2021/05/24 04:15:20;;;;;;;4.82;1.00;;;16.00;65.00;;;;;;5055727;28;20103;-71
2021/05/24 04:17:48;;;;;;;4.32;0.73;;;16.00;65.00;;;;;;5055552;28;20028;-71
2021/05/24 04:20:15;;;;;;;2.58;0.98;;;16.00;65.10;;;;;;5055464;28;20017;-71
2021/05/24 04:22:41;;;;;;;4.20;0.70;;;16.00;65.20;;;;;;5055553;28;20159;-71
2021/05/24 04:25:08;;;;;;;3.63;0.90;;;16.00;65.20;;;;;;5055791;28;20032;-72
2021/05/24 04:27:34;;;;;;;6.03;0.82;;;16.00;65.00;;;;;;5055357;28;20029;-71
2021/05/24 04:30:00;;;;;;;3.60;0.85;;;16.10;65.10;;;;;;5055269;28;20021;-71
2021/05/24 04:32:26;;;;;;;1.75;0.70;;;16.10;65.20;;;;;;5055201;28;20108;-71
2021/05/24 04:34:51;;;;;;;2.03;0.63;;;16.10;65.20;;;;;;5055258;28;20024;-71
2021/05/24 04:37:17;;;;;;;5.18;1.00;;;16.10;65.10;;;;;;5055044;28;20378;-71
2021/05/24 04:39:45;;;;;;;2.63;0.80;;;16.10;65.00;;;;;;5055474;28;20025;-71
2021/05/24 04:42:11;;;;;;;1.27;0.63;;;16.10;65.30;;;;;;5055522;28;20055;-71
2021/05/24 04:44:37;;;;;;;5.10;0.90;;;16.10;65.00;;;;;;5055609;28;20028;-71
2021/05/24 04:47:03;;;;;;;3.08;0.80;;;16.10;64.70;;;;;;5055491;28;20068;-71
2021/05/24 04:49:31;;;;;;;4.03;1.05;;;16.10;65.00;;;;;;5054847;28;20033;-71
2021/05/24 04:52:00;;;;;;;2.58;0.82;;;16.10;64.80;;;;;;5055206;28;20040;-71
2021/05/24 04:54:27;;;;;;;5.35;1.00;;;16.10;64.30;;;;;;5055122;28;20051;-71
2021/05/24 04:56:53;;;;;;;2.97;1.00;;;16.20;64.00;;;;;;5055070;28;20421;-71
2021/05/24 04:59:19;;;;;;;2.63;0.75;;;16.20;64.10;;;;;;5053420;28;20033;-71
2021/05/24 05:01:47;;;;;;;2.72;0.60;;;16.20;64.10;;;;;;5054983;28;20111;-71
2021/05/24 05:04:14;;;;;;;3.17;0.93;;;16.20;63.80;;;;;;5055329;28;20029;-71
2021/05/24 05:06:39;;;;;;;4.70;0.95;;;16.20;64.10;;;;;;5054926;28;20500;-71
2021/05/24 05:09:05;;;;;;;4.82;0.80;;;16.20;64.60;;;;;;5053399;28;20061;-71
2021/05/24 05:11:31;;;;;;;8.00;0.90;;;16.20;64.90;;;;;;5054469;28;20053;-72
2021/05/24 05:13:57;;;;;;;3.03;1.15;;;16.20;65.20;;;;;;5054703;28;20491;-71
2021/05/24 05:16:22;;;;;;;6.45;0.73;;;16.20;65.20;;;;;;5054654;28;20090;-71
2021/05/24 05:18:48;;;;;;;5.05;1.00;;;16.20;65.00;;;;;;5054607;28;20100;-71
2021/05/24 05:21:14;;;;;;;3.08;0.60;;;16.20;64.80;;;;;;5055014;28;20033;-71
2021/05/24 05:23:39;;;;;;;2.85;0.90;;;16.20;64.80;;;;;;5054384;28;20372;-71
2021/05/24 05:26:05;;;;;;;5.80;0.75;;;16.20;64.70;;;;;;5054657;28;20025;-71
2021/05/24 05:28:31;;;;;;;5.20;0.70;;;16.20;64.60;;;;;;5054504;28;20095;-71
2021/05/24 05:30:57;;;;;;;2.40;0.80;;;16.20;64.80;;;;;;5054072;28;20477;-71
2021/05/24 05:33:23;;;;;;;4.13;1.10;;;16.10;65.10;;;;;;5054390;28;20033;-71
2021/05/24 05:35:51;;;;;;;6.95;0.90;;;16.20;65.80;;;;;;5054741;28;20033;-71
2021/05/24 05:38:17;;;;;;;2.22;1.00;;;16.20;66.50;;;;;;5054232;28;20436;-71
2021/05/24 05:40:47;;;;;;;5.40;1.40;;;16.20;67.50;;;;;;5054272;28;20060;-71
2021/05/24 05:43:12;;;;;;;4.32;1.02;;;16.20;68.10;;;;;;5054669;28;20029;-71
2021/05/24 05:45:38;;;;;;;4.70;0.90;;;16.20;69.70;;;;;;5053860;28;20405;-71
2021/05/24 05:48:04;;;;;;;4.68;0.80;;;16.10;70.10;;;;;;5054091;28;20431;-71
2021/05/24 05:50:30;;;;;;;2.78;0.75;;;16.20;69.40;;;;;;5053771;28;20032;-72
2021/05/24 05:52:58;;;;;;;4.32;0.85;;;16.10;69.10;;;;;;5052812;28;20037;-71
2021/05/24 05:55:24;;;;;;;1.05;0.63;;;16.10;69.10;;;;;;5053805;28;20452;-71
2021/05/24 05:57:49;;;;;;;4.70;1.20;;;16.10;69.00;;;;;;5053987;28;20043;-71
2021/05/24 06:00:16;;;;;;;2.45;0.80;;;16.10;69.50;;;;;;5053327;28;20025;-71
2021/05/24 06:02:42;;;;;;;6.93;1.60;;;16.10;69.60;;;;;;5053381;28;20039;-71
2021/05/24 06:05:09;;;;;;;3.20;0.68;;;16.10;70.20;;;;;;5053914;28;20100;-71
2021/05/24 06:07:35;;;;;;;2.88;1.10;;;16.10;70.80;;;;;;5054050;28;20017;-71
2021/05/24 06:10:01;;;;;;;2.83;1.02;;;16.10;70.90;;;;;;5053665;28;20389;-71
2021/05/24 06:12:26;;;;;;;2.45;1.05;;;16.10;71.70;;;;;;5053437;28;20535;-71
2021/05/24 06:14:52;;;;;;;2.88;1.05;;;16.10;72.90;;;;;;5053297;28;20440;-71
2021/05/24 06:17:17;;;;;;;2.92;1.45;;;16.10;72.40;;;;;;5053672;28;20029;-71
2021/05/24 06:19:43;;;;;;;5.20;1.33;;;16.10;72.40;;;;;;5053495;28;20021;-71
2021/05/24 06:22:09;;;;;;;7.50;1.30;;;16.00;72.70;;;;;;5053460;28;20033;-71
2021/05/24 06:24:34;;;;;;;6.30;1.10;;;16.10;72.90;;;;;;5053507;28;20024;-71
2021/05/24 06:27:00;;;;;;;5.93;1.25;;;16.00;72.60;;;;;;5053371;28;20029;-71
2021/05/24 06:29:26;;;;;;;3.15;1.15;;;16.10;72.90;;;;;;5053133;28;20556;-71
2021/05/24 06:31:53;;;;;;;4.65;1.40;;;16.00;73.10;;;;;;5053124;28;20377;-71
2021/05/24 06:34:19;;;;;;;2.50;0.95;;;16.00;72.90;;;;;;5053085;28;20036;-71
2021/05/24 06:36:45;;;;;;;1.58;0.80;;;16.00;73.20;;;;;;5053138;28;20037;-72
2021/05/24 06:39:11;;;;;;;4.78;1.10;;;16.00;72.90;;;;;;5052971;28;20024;-71
2021/05/24 06:41:37;;;;;;;4.45;0.82;;;16.00;73.30;;;;;;5053150;28;20487;-71
2021/05/24 06:44:04;;;;;;;6.97;1.30;;;16.10;73.50;;;;;;5052951;28;20029;-71
2021/05/24 06:46:29;;;;;;;7.70;1.08;;;16.10;73.60;;;;;;5053325;28;20032;-71
2021/05/24 06:48:55;;;;;;;4.78;1.00;;;16.10;74.00;;;;;;5053255;28;20489;-71
2021/05/24 06:51:21;;;;;;;5.25;1.15;;;16.10;73.50;;;;;;5053234;28;20103;-71
2021/05/24 06:53:47;;;;;;;2.92;1.00;;;16.10;73.10;;;;;;5052897;28;20049;-71
2021/05/24 06:56:13;;;;;;;3.08;1.30;;;16.10;73.40;;;;;;5052533;28;20557;-72
2021/05/24 06:58:38;;;;;;;3.25;1.00;;;16.10;73.70;;;;;;5052359;28;20071;-72
2021/05/24 07:01:04;;;;;;;4.13;1.25;;;16.10;73.80;;;;;;5052634;28;20056;-72
2021/05/24 07:03:30;;;;;;;2.35;0.80;;;16.10;73.20;;;;;;5051053;28;20043;-73
2021/05/24 07:05:56;;;;;;;2.22;1.00;;;16.10;73.10;;;;;;5052534;28;20021;-72
2021/05/24 07:08:23;;;;;;;4.28;0.98;;;16.00;73.40;;;;;;5052304;28;20029;-73
2021/05/24 07:10:48;;;;;;;2.92;1.10;;;16.00;74.20;;;;;;5032394;28;20104;-72
2021/05/24 07:13:14;;;;;;;3.55;0.98;;;16.00;73.60;;;;;;5032952;28;20088;-73
2021/05/24 07:15:40;;;;;;;4.25;1.30;;;16.00;73.90;;;;;;5036615;28;20029;-72
2021/05/24 07:18:06;;;;;;;5.95;1.02;;;16.00;74.70;;;;;;5036892;28;20026;-72
2021/05/24 07:20:32;;;;;;;3.97;0.93;;;15.90;75.00;;;;;;5060485;28;20026;-72
2021/05/24 07:22:58;;;;;;;8.75;1.13;;;15.90;74.60;;;;;;5076296;28;20017;-71
2021/05/24 07:25:24;;;;;;;4.85;0.90;;;15.90;74.20;;;;;;5076322;28;20031;-72
2021/05/24 07:27:49;;;;;;;2.58;0.80;;;15.90;74.50;;;;;;5076493;28;20035;-72
2021/05/24 07:30:16;;;;;;;3.05;0.70;;;15.90;74.60;;;;;;5076430;28;20078;-71
2021/05/24 07:32:42;;;;;;;3.60;0.85;;;15.90;74.10;;;;;;5076097;28;20024;-73
2021/05/24 07:35:08;;;;;;;3.55;0.90;;;15.90;74.30;;;;;;5076172;28;20508;-72
2021/05/24 07:37:34;;;;;;;5.10;1.00;;;15.90;74.60;;;;;;5076094;28;20099;-72
2021/05/24 07:40:00;;;;;;;5.65;1.00;;;15.90;74.80;;;;;;5076236;28;20017;-72
2021/05/24 07:42:25;;;;;;;8.13;1.13;;;15.90;75.30;;;;;;5076164;28;20025;-71
2021/05/24 07:44:51;;;;;;;1.73;0.70;;;15.80;75.80;;;;;;5076082;28;20025;-72
2021/05/24 07:47:17;;;;;;;5.63;1.13;;;15.80;76.70;;;;;;5076032;28;20388;-72
2021/05/24 07:49:43;;;;;;;5.47;0.90;;;15.80;77.10;;;;;;5074051;28;20031;-73
2021/05/24 07:52:09;;;;;;;5.10;1.10;;;15.80;77.50;;;;;;5074477;28;20105;-72
2021/05/24 07:54:34;;;;;;;7.30;1.60;;;15.80;77.90;;;;;;5073980;28;20055;-72
2021/05/24 07:57:00;;;;;;;7.18;1.85;;;15.80;78.50;;;;;;5053325;28;20410;-72
2021/05/24 07:59:26;;;;;;;8.88;1.80;;;15.70;78.80;;;;;;5070067;28;20032;-72
2021/05/24 08:01:52;;;;;;;5.30;1.48;;;15.70;79.10;;;;;;5055180;28;20020;-72
2021/05/24 08:04:17;;;;;;;7.00;1.40;;;15.70;79.40;;;;;;5056407;28;20405;-71
2021/05/24 08:06:43;;;;;;;3.75;1.48;;;15.70;79.80;;;;;;5075524;28;20032;-71
2021/05/24 08:09:09;;;;;;;3.88;1.50;;;15.70;80.10;;;;;;5075550;28;20032;-72
2021/05/24 08:11:35;;;;;;;3.90;1.05;;;15.70;80.30;;;;;;5074285;28;20380;-71
2021/05/24 08:14:01;;;;;;;8.63;1.95;;;15.70;80.50;;;;;;5074808;28;20534;-71
2021/05/24 08:16:26;;;;;;;7.13;1.48;;;15.70;80.40;;;;;;5075042;28;20032;-71
2021/05/24 08:18:52;;;;;;;8.77;1.73;;;15.70;80.20;;;;;;5075365;28;20032;-72
2021/05/24 08:21:18;;;;;;;3.95;1.50;;;15.70;80.00;;;;;;5075204;28;20041;-72
2021/05/24 08:23:44;;;;;;;5.80;1.42;;;15.70;80.50;;;;;;5074765;28;20021;-71
2021/05/24 08:26:11;;;;;;;5.38;1.48;;;15.70;81.00;;;;;;5075207;28;20050;-79
2021/05/24 08:28:37;;;;;;;6.45;1.38;;;15.80;81.20;;;;;;5064943;28;20025;-75
2021/05/24 08:31:03;;;;;;;8.30;1.50;;;15.70;80.90;;;;;;5055260;28;20438;-71
2021/05/24 08:33:30;;;;;;;3.97;1.00;;;15.70;80.70;;;;;;5055065;28;20029;-77
2021/05/24 08:35:57;;;;;;;2.97;0.95;;;15.70;80.30;;;;;;5054787;28;20698;-73
2021/05/24 08:38:23;;;;;;;3.78;0.90;;;15.70;80.10;;;;;;5054144;28;20431;-71
2021/05/24 08:40:49;;;;;;;3.33;1.08;;;15.70;79.80;;;;;;5034960;28;20489;-71
2021/05/24 08:43:15;;;;;;;6.20;1.45;;;15.60;79.40;;;;;;5035277;28;20042;-71
2021/05/24 08:45:43;;;;;;;2.63;0.95;;;15.60;79.80;;;;;;5035125;28;20029;-70
2021/05/24 08:48:10;;;;;;;6.03;1.27;;;15.60;80.20;;;;;;5035289;28;20108;-70
2021/05/24 08:50:37;;;;;;;5.18;1.30;;;15.60;80.50;;;;;;5035178;28;20037;-70
2021/05/24 08:53:07;;;;;;;4.43;1.02;;;15.60;80.40;;;;;;5033421;28;20060;-70
2021/05/24 08:55:33;;;;;;;2.72;1.10;;;15.50;80.60;;;;;;5034095;28;20049;-70
2021/05/24 08:57:59;;;;;;;2.83;1.15;;;15.50;80.60;;;;;;5035185;28;20032;-70
2021/05/24 09:00:25;;;;;;;3.60;1.30;;;15.50;80.70;;;;;;5034862;28;20088;-69
2021/05/24 09:02:54;;;;;;;4.97;1.15;;;15.40;80.80;;;;;;5035115;28;20435;-70
2021/05/24 09:05:23;;;;;;;2.95;1.20;;;15.40;81.00;;;;;;5035003;28;20032;-70
2021/05/24 09:07:57;;;;;;;3.78;0.93;;;15.40;81.20;;;;;;5034769;28;20032;-69
2021/05/24 09:10:26;;;;;;;2.92;1.08;;;15.40;81.50;;;;;;5034725;28;20087;-69
2021/05/24 09:12:52;;;;;;;3.13;0.70;;;15.40;81.50;;;;;;5034806;28;20054;-69
2021/05/24 09:15:20;;;;;;;1.98;0.98;;;15.30;81.20;;;;;;5032642;28;20028;-70
2021/05/24 09:17:47;;;;;;;3.33;0.88;;;15.30;80.90;;;;;;5032051;28;20121;-70
2021/05/24 09:20:44;;;;;;;4.07;0.95;;;15.30;81.00;;;;;;5032039;28;20466;-70
2021/05/24 09:23:25;;;;;;;2.22;1.10;;;15.20;81.20;;;;;;5034434;28;20029;-70
2021/05/24 09:25:58;;;;;;;2.90;1.15;;;15.20;81.50;;;;;;5034425;28;20389;-70
2021/05/24 09:28:38;;;;;;;2.33;0.98;;;15.10;81.70;;;;;;5034510;28;20045;-70
2021/05/24 09:31:16;;;;;;;3.60;1.20;;;15.10;81.90;;;;;;5034369;28;20026;-70
2021/05/24 09:33:46;;;;;;;2.85;1.10;;;15.00;82.30;;;;;;5034445;28;20021;-70
2021/05/24 09:36:12;;;;;;;2.83;0.90;;;15.00;82.30;;;;;;5033265;28;20026;-71
2021/05/24 09:38:40;;;;;;;4.93;1.40;;;15.00;82.60;;;;;;5034285;28;20041;-71
2021/05/24 09:41:08;;;;;;;4.43;1.08;;;15.00;82.90;;;;;;5034372;28;20050;-71
2021/05/24 09:43:33;;;;;;;3.33;1.30;;;15.00;82.90;;;;;;5034479;28;20032;-70
2021/05/24 09:46:09;;;;;;;3.85;1.10;;;15.00;83.30;;;;;;5034335;28;20398;-71
2021/05/24 09:48:35;;;;;;;3.58;1.10;;;15.00;83.70;;;;;;5034073;28;20048;-69
2021/05/24 09:51:03;;;;;;;2.30;1.10;;;15.00;83.90;;;;;;5034172;28;20030;-69
2021/05/24 09:53:29;;;;;;;3.22;1.10;;;15.00;83.90;;;;;;5034029;28;20028;-70
2021/05/24 09:56:01;;;;;;;2.83;1.05;;;15.00;83.90;;;;;;5033983;28;20058;-70
2021/05/24 09:58:27;;;;;;;3.22;1.20;;;15.10;83.80;;;;;;5033823;28;20033;-70
2021/05/24 10:01:01;;;;;;;3.88;0.90;;;15.00;83.80;;;;;;5033178;28;20033;-70
2021/05/24 10:03:31;;;;;;;2.83;0.60;;;15.00;83.70;;;;;;5033548;28;20017;-70
2021/05/24 10:05:57;;;;;;;1.52;0.70;;;15.00;83.30;;;;;;5033924;28;20382;-70
2021/05/24 10:08:24;;;;;;;1.20;0.80;;;15.00;83.20;;;;;;5033793;28;20104;-69
2021/05/24 10:10:50;;;;;;;1.65;0.70;;;15.00;83.20;;;;;;5033081;28;20390;-70
2021/05/24 10:13:17;;;;;;;8.70;0.80;;;15.00;83.40;;;;;;5033967;28;20022;-69
2021/05/24 10:15:44;;;;;;;3.80;0.90;;;15.00;83.40;;;;;;5031547;28;20038;-69
2021/05/24 10:18:11;;;;;;;1.60;0.75;;;15.00;83.30;;;;;;5030839;28;20033;-70
2021/05/24 10:20:37;;;;;;;2.85;0.80;;;15.00;83.10;;;;;;5030780;28;20410;-69
2021/05/24 10:23:04;;;;;;;5.15;0.88;;;15.00;83.30;;;;;;5032895;28;20083;-70
2021/05/24 10:25:30;;;;;;;1.95;0.63;;;15.00;83.50;;;;;;5032697;28;20033;-69
2021/05/24 10:27:59;;;;;;;4.32;0.70;;;15.10;83.60;;;;;;5032504;28;20033;-69
2021/05/24 10:30:26;;;;;;;3.75;0.90;;;15.10;83.90;;;;;;5033209;28;20109;-70
2021/05/24 10:32:58;;;;;;;1.52;0.68;;;15.10;84.20;;;;;;5033127;28;20152;-71
2021/05/24 10:35:45;;;;;;;1.77;0.60;;;15.10;84.30;;;;;;5033020;28;20535;-70
2021/05/24 10:38:22;;;;;;;4.68;1.73;;;15.10;83.90;;;;;;5032960;28;20299;-70
2021/05/24 10:40:50;;;;;;;2.58;1.30;;;15.10;83.70;;;;;;5033207;28;20465;-70
2021/05/24 10:43:18;;;;;;;12.07;2.25;;;15.10;83.60;;;;;;5033288;28;20381;-70
2021/05/24 10:45:45;;;;;;;10.80;3.47;;;15.10;84.30;;;;;;5033115;28;20041;-70
2021/05/24 10:48:18;;;;;;;3.55;1.98;;;15.10;83.70;;;;;;5033377;28;20022;-70
2021/05/24 10:51:07;;;;;;;12.32;7.07;;;15.10;83.70;;;;;;5033338;28;20465;-70
2021/05/24 10:53:42;;;;;;;5.90;2.88;;;15.10;83.80;;;;;;5033074;28;20128;-70
2021/05/24 10:56:18;;;;;;;6.30;2.60;;;15.10;83.90;;;;;;5032735;28;20053;-70
2021/05/24 10:58:44;;;;;;;4.70;1.27;;;15.10;84.10;;;;;;5032817;28;20025;-70
2021/05/24 11:01:10;;;;;;;1.95;0.80;;;15.10;84.50;;;;;;5033055;28;20484;-70
2021/05/24 11:03:40;;;;;;;1.20;0.60;;;15.10;84.70;;;;;;5033211;28;20029;-70
2021/05/24 11:06:15;;;;;;;3.60;0.80;;;15.10;84.70;;;;;;5032571;28;20078;-70
2021/05/24 11:08:49;;;;;;;2.22;0.60;;;15.10;84.40;;;;;;5032898;28;20033;-70
2021/05/24 11:11:28;;;;;;;2.47;0.70;;;15.10;84.40;;;;;;5033099;28;20013;-71
2021/05/24 11:14:00;;;;;;;5.05;1.10;;;15.00;84.60;;;;;;5033116;28;20079;-70
2021/05/24 11:16:26;;;;;;;1.85;1.00;;;15.10;84.90;;;;;;5032943;28;20083;-70
2021/05/24 11:19:17;;;;;;;3.60;1.00;;;15.00;84.80;;;;;;5032873;28;20017;-70
2021/05/24 11:21:53;;;;;;;3.67;0.80;;;15.00;84.70;;;;;;5033086;28;20374;-71
2021/05/24 11:27:04;;;;;;;2.33;0.82;;;15.00;84.50;;;;;;5032926;28;20064;-70
2021/05/24 11:29:30;;;;;;;3.13;0.77;;;15.00;84.70;;;;;;5031538;28;20393;-70
2021/05/24 11:31:56;;;;;;;1.48;0.65;;;15.00;84.80;;;;;;5032499;28;20033;-70
2021/05/24 11:34:36;;;;;;;2.50;0.70;;;15.00;84.70;;;;;;5032787;28;20033;-70
2021/05/24 11:37:09;;;;;;;2.80;0.90;;;15.00;84.60;;;;;;5032638;28;20076;-70
2021/05/24 11:39:47;;;;;;;6.65;1.08;;;15.00;84.60;;;;;;5032213;28;20021;-70
2021/05/24 11:42:22;;;;;;;3.67;1.25;;;14.90;84.60;;;;;;5032068;28;20079;-70
2021/05/24 11:44:49;;;;;;;5.60;1.10;;;15.00;84.60;;;;;;5032403;28;20036;-71
2021/05/24 11:47:21;;;;;;;0.85;0.52;;;15.00;84.80;;;;;;5032119;28;20034;-72
2021/05/24 11:49:55;;;;;;;3.40;1.42;;;15.00;84.90;;;;;;5032510;28;20025;-71
2021/05/24 11:52:24;;;;;;;3.92;0.82;;;14.90;84.40;;;;;;5032564;28;20422;-71
2021/05/24 11:54:51;;;;;;;1.23;0.68;;;14.90;84.20;;;;;;5032378;28;20124;-71
2021/05/24 11:57:19;;;;;;;3.83;0.82;;;14.90;84.00;;;;;;5032573;28;20048;-71
2021/05/24 11:59:45;;;;;;;1.20;0.68;;;14.90;84.00;;;;;;5034024;28;20049;-70
2021/05/24 12:02:14;;;;;;;3.90;0.75;;;14.90;84.00;;;;;;5036165;28;20026;-70
2021/05/24 12:04:42;;;;;;;3.97;0.80;;;14.90;84.30;;;;;;5051318;28;20358;-71
2021/05/24 12:07:20;;;;;;;1.65;0.88;;;15.00;84.80;;;;;;5035417;28;20068;-71
2021/05/24 12:09:51;;;;;;;3.50;0.90;;;15.00;84.90;;;;;;5034762;28;20112;-71
2021/05/24 12:12:18;;;;;;;2.92;0.93;;;15.00;85.20;;;;;;5035351;28;20029;-70
2021/05/24 12:14:48;;;;;;;3.72;0.98;;;14.90;85.10;;;;;;5034888;28;20473;-71
2021/05/24 12:17:19;;;;;;;2.00;0.80;;;14.90;85.50;;;;;;5035783;28;20409;-70
2021/05/24 12:19:46;;;;;;;3.20;1.00;;;14.90;85.60;;;;;;5035867;28;20462;-70
2021/05/24 12:22:14;;;;;;;3.38;0.95;;;15.00;85.70;;;;;;5034438;28;20029;-70
2021/05/24 12:24:42;;;;;;;4.47;1.58;;;14.90;85.60;;;;;;5035669;28;20099;-70
2021/05/24 12:27:10;;;;;;;5.07;1.73;;;14.90;85.60;;;;;;5035526;28;20029;-70
2021/05/24 12:29:51;;;;;;;5.45;2.10;;;14.90;85.70;;;;;;5035425;28;20025;-71
2021/05/24 12:32:34;;;;;;;4.40;2.10;;;14.90;85.80;;;;;;5035624;28;20067;-70
2021/05/24 12:35:08;;;;;;;6.00;3.13;;;15.00;86.10;;;;;;5035576;28;20033;-71
2021/05/24 12:37:36;;;;;;;6.25;2.90;;;14.90;86.20;;;;;;5035368;28;20045;-70
2021/05/24 12:40:07;;;;;;;4.65;1.92;;;14.90;86.60;;;;;;5035122;28;20420;-70
2021/05/24 12:42:34;;;;;;;1.50;1.00;;;15.00;86.70;;;;;;5035580;28;20100;-70
2021/05/24 12:45:05;;;;;;;7.25;1.10;;;15.00;86.70;;;;;;5035016;28;20033;-70
2021/05/24 12:47:31;;;;;;;3.10;1.00;;;15.00;86.80;;;;;;5035542;28;20101;-70
2021/05/24 12:50:07;;;;;;;3.22;0.93;;;15.00;86.60;;;;;;5035318;28;20057;-70